sensor_id;sensor_type;location;lat;lon;timestamp;temperature;humidity
32334;DHT22;18810;53.040;8.850;2023-02-01T00:02:17;5.90;99.90
32334;DHT22;18810;53.040;8.850;2023-02-01T00:04:42;5.90;99.90
32334;DHT22;18810;53.040;8.850;2023-02-01T00:14:28;5.90;99.90
32334;DHT22;18810;53.040;8.850;2023-02-01T00:16:54;5.90;99.90
32334;DHT22;18810;53.040;8.850;2023-02-01T00:19:20;5.90;99.90
32334;DHT22;18810;53.040;8.850;2023-02-01T00:21:45;5.90;99.90
32334;DHT22;18810;53.040;8.850;2023-02-01T00:24:12;6.00;99.90
32334;DHT22;18810;53.040;8.850;2023-02-01T00:26:40;5.90;99.90
32334;DHT22;18810;53.040;8.850;2023-02-01T00:29:11;5.80;99.90
32334;DHT22;18810;53.040;8.850;2023-02-01T00:31:37;6.30;99.90
32334;DHT22;18810;53.040;8.850;2023-02-01T00:34:03;6.00;99.90
32334;DHT22;18810;53.040;8.850;2023-02-01T00:38:55;5.90;99.90
32334;DHT22;18810;53.040;8.850;2023-02-01T00:41:21;6.00;99.90
32334;DHT22;18810;53.040;8.850;2023-02-01T00:46:16;6.00;99.90
32334;DHT22;18810;53.040;8.850;2023-02-01T00:48:42;6.00;99.90
32334;DHT22;18810;53.040;8.850;2023-02-01T00:51:10;6.10;99.90
32334;DHT22;18810;53.040;8.850;2023-02-01T00:56:03;6.00;99.90
32334;DHT22;18810;53.040;8.850;2023-02-01T00:58:31;6.00;99.90
32334;DHT22;18810;53.040;8.850;2023-02-01T01:01:05;6.00;99.90
32334;DHT22;18810;53.040;8.850;2023-02-01T01:03:33;6.00;99.90
32334;DHT22;18810;53.040;8.850;2023-02-01T01:06:00;6.00;99.90
32334;DHT22;18810;53.040;8.850;2023-02-01T01:08:26;6.60;99.90
32334;DHT22;18810;53.040;8.850;2023-02-01T01:10:52;6.00;99.90
32334;DHT22;18810;53.040;8.850;2023-02-01T01:13:18;7.20;99.90
32334;DHT22;18810;53.040;8.850;2023-02-01T01:15:44;6.80;99.90
32334;DHT22;18810;53.040;8.850;2023-02-01T01:18:09;6.20;99.90
32334;DHT22;18810;53.040;8.850;2023-02-01T01:20:37;6.10;99.90
32334;DHT22;18810;53.040;8.850;2023-02-01T01:25:30;6.10;99.90
32334;DHT22;18810;53.040;8.850;2023-02-01T01:27:55;6.20;99.90
32334;DHT22;18810;53.040;8.850;2023-02-01T01:30:21;6.30;99.90
32334;DHT22;18810;53.040;8.850;2023-02-01T01:32:47;7.20;99.90
32334;DHT22;18810;53.040;8.850;2023-02-01T01:35:12;6.20;99.90
32334;DHT22;18810;53.040;8.850;2023-02-01T01:37:38;6.20;99.90
32334;DHT22;18810;53.040;8.850;2023-02-01T01:40:05;6.20;99.90
32334;DHT22;18810;53.040;8.850;2023-02-01T01:42:40;6.20;99.90
32334;DHT22;18810;53.040;8.850;2023-02-01T01:45:33;6.30;99.90
32334;DHT22;18810;53.040;8.850;2023-02-01T01:48:03;6.20;99.90
32334;DHT22;18810;53.040;8.850;2023-02-01T01:50:33;6.20;99.90
32334;DHT22;18810;53.040;8.850;2023-02-01T01:53:03;6.30;99.90
32334;DHT22;18810;53.040;8.850;2023-02-01T01:55:32;6.20;99.90
32334;DHT22;18810;53.040;8.850;2023-02-01T01:58:03;6.20;99.90
32334;DHT22;18810;53.040;8.850;2023-02-01T02:00:30;6.20;99.90
32334;DHT22;18810;53.040;8.850;2023-02-01T02:03:05;6.30;99.90
32334;DHT22;18810;53.040;8.850;2023-02-01T02:07:59;6.20;99.90
32334;DHT22;18810;53.040;8.850;2023-02-01T02:10:28;6.40;99.90
32334;DHT22;18810;53.040;8.850;2023-02-01T02:13:14;6.10;99.90
32334;DHT22;18810;53.040;8.850;2023-02-01T02:15:45;6.10;99.90
32334;DHT22;18810;53.040;8.850;2023-02-01T02:18:21;6.80;99.90
32334;DHT22;18810;53.040;8.850;2023-02-01T02:26:46;6.00;99.90
32334;DHT22;18810;53.040;8.850;2023-02-01T02:29:34;6.00;99.90
32334;DHT22;18810;53.040;8.850;2023-02-01T02:34:44;6.00;99.90
32334;DHT22;18810;53.040;8.850;2023-02-01T02:45:32;6.10;99.90
32334;DHT22;18810;53.040;8.850;2023-02-01T02:48:34;6.20;99.90
32334;DHT22;18810;53.040;8.850;2023-02-01T02:52:08;6.10;99.90
32334;DHT22;18810;53.040;8.850;2023-02-01T02:54:24;6.10;99.90
32334;DHT22;18810;53.040;8.850;2023-02-01T02:57:10;6.10;99.90
32334;DHT22;18810;53.040;8.850;2023-02-01T02:59:57;6.00;99.90
32334;DHT22;18810;53.040;8.850;2023-02-01T03:02:43;6.10;99.90
32334;DHT22;18810;53.040;8.850;2023-02-01T03:05:37;6.10;99.90
32334;DHT22;18810;53.040;8.850;2023-02-01T03:08:12;6.00;99.90
32334;DHT22;18810;53.040;8.850;2023-02-01T03:16:08;6.00;99.90
32334;DHT22;18810;53.040;8.850;2023-02-01T03:18:47;6.00;99.90
32334;DHT22;18810;53.040;8.850;2023-02-01T03:21:20;6.60;99.90
32334;DHT22;18810;53.040;8.850;2023-02-01T03:23:47;6.00;99.90
32334;DHT22;18810;53.040;8.850;2023-02-01T03:26:17;6.00;99.90
32334;DHT22;18810;53.040;8.850;2023-02-01T03:28:49;6.70;99.90
32334;DHT22;18810;53.040;8.850;2023-02-01T03:31:17;5.90;99.90
32334;DHT22;18810;53.040;8.850;2023-02-01T03:33:43;5.90;99.90
32334;DHT22;18810;53.040;8.850;2023-02-01T03:39:04;5.90;99.90
32334;DHT22;18810;53.040;8.850;2023-02-01T03:44:24;5.50;99.90
32334;DHT22;18810;53.040;8.850;2023-02-01T03:47:08;5.30;99.90
32334;DHT22;18810;53.040;8.850;2023-02-01T03:50:00;5.20;99.90
32334;DHT22;18810;53.040;8.850;2023-02-01T03:52:47;5.20;99.90
32334;DHT22;18810;53.040;8.850;2023-02-01T03:55:15;5.10;99.90
32334;DHT22;18810;53.040;8.850;2023-02-01T03:57:51;5.10;99.90
32334;DHT22;18810;53.040;8.850;2023-02-01T04:00:23;5.00;99.90
32334;DHT22;18810;53.040;8.850;2023-02-01T04:02:50;5.00;99.90
32334;DHT22;18810;53.040;8.850;2023-02-01T04:05:16;5.00;99.90
32334;DHT22;18810;53.040;8.850;2023-02-01T04:07:42;5.80;99.90
32334;DHT22;18810;53.040;8.850;2023-02-01T04:10:08;5.50;99.90
32334;DHT22;18810;53.040;8.850;2023-02-01T04:12:34;4.90;99.90
32334;DHT22;18810;53.040;8.850;2023-02-01T04:15:00;5.50;99.90
32334;DHT22;18810;53.040;8.850;2023-02-01T04:17:25;4.80;99.90
32334;DHT22;18810;53.040;8.850;2023-02-01T04:22:17;4.90;99.90
32334;DHT22;18810;53.040;8.850;2023-02-01T04:24:43;4.80;99.90
32334;DHT22;18810;53.040;8.850;2023-02-01T04:29:34;4.80;99.90
32334;DHT22;18810;53.040;8.850;2023-02-01T04:32:00;5.50;99.90
32334;DHT22;18810;53.040;8.850;2023-02-01T04:34:25;5.80;99.90
32334;DHT22;18810;53.040;8.850;2023-02-01T04:36:51;4.90;99.90
32334;DHT22;18810;53.040;8.850;2023-02-01T04:39:17;5.70;99.90
32334;DHT22;18810;53.040;8.850;2023-02-01T04:41:43;5.20;99.90
32334;DHT22;18810;53.040;8.850;2023-02-01T04:44:18;5.30;99.90
32334;DHT22;18810;53.040;8.850;2023-02-01T04:46:45;5.00;99.90
32334;DHT22;18810;53.040;8.850;2023-02-01T04:49:12;5.80;99.90
32334;DHT22;18810;53.040;8.850;2023-02-01T04:51:38;5.00;99.90
32334;DHT22;18810;53.040;8.850;2023-02-01T04:54:04;5.00;99.90
32334;DHT22;18810;53.040;8.850;2023-02-01T04:56:30;5.20;99.90
32334;DHT22;18810;53.040;8.850;2023-02-01T05:01:22;5.00;99.90
32334;DHT22;18810;53.040;8.850;2023-02-01T05:03:50;5.10;99.90
32334;DHT22;18810;53.040;8.850;2023-02-01T05:06:15;5.40;99.90
32334;DHT22;18810;53.040;8.850;2023-02-01T05:08:41;5.10;99.90
32334;DHT22;18810;53.040;8.850;2023-02-01T05:11:06;5.30;99.90
32334;DHT22;18810;53.040;8.850;2023-02-01T05:13:52;5.50;99.90
32334;DHT22;18810;53.040;8.850;2023-02-01T05:16:18;5.10;99.90
32334;DHT22;18810;53.040;8.850;2023-02-01T05:18:43;5.10;99.90
32334;DHT22;18810;53.040;8.850;2023-02-01T05:21:09;6.10;99.90
32334;DHT22;18810;53.040;8.850;2023-02-01T05:23:34;6.00;99.90
32334;DHT22;18810;53.040;8.850;2023-02-01T05:26:24;6.10;99.90
32334;DHT22;18810;53.040;8.850;2023-02-01T05:28:50;5.10;99.90
32334;DHT22;18810;53.040;8.850;2023-02-01T05:31:16;5.10;99.90
32334;DHT22;18810;53.040;8.850;2023-02-01T05:33:42;6.10;99.90
32334;DHT22;18810;53.040;8.850;2023-02-01T05:36:08;5.10;99.90
32334;DHT22;18810;53.040;8.850;2023-02-01T05:38:33;5.10;99.90
32334;DHT22;18810;53.040;8.850;2023-02-01T05:40:59;5.10;99.90
32334;DHT22;18810;53.040;8.850;2023-02-01T05:43:25;5.00;99.90
32334;DHT22;18810;53.040;8.850;2023-02-01T05:45:53;6.30;99.90
32334;DHT22;18810;53.040;8.850;2023-02-01T05:48:19;5.10;99.90
32334;DHT22;18810;53.040;8.850;2023-02-01T05:50:45;5.50;99.90
32334;DHT22;18810;53.040;8.850;2023-02-01T05:53:11;5.00;99.90
32334;DHT22;18810;53.040;8.850;2023-02-01T06:00:30;5.10;99.90
32334;DHT22;18810;53.040;8.850;2023-02-01T06:02:56;5.10;99.90
32334;DHT22;18810;53.040;8.850;2023-02-01T06:05:22;5.10;99.90
32334;DHT22;18810;53.040;8.850;2023-02-01T06:07:47;5.20;99.90
32334;DHT22;18810;53.040;8.850;2023-02-01T06:10:15;5.00;99.90
32334;DHT22;18810;53.040;8.850;2023-02-01T06:12:41;4.90;99.90
32334;DHT22;18810;53.040;8.850;2023-02-01T06:15:07;5.30;99.90
32334;DHT22;18810;53.040;8.850;2023-02-01T06:29:43;4.90;99.90
32334;DHT22;18810;53.040;8.850;2023-02-01T06:32:09;5.70;99.90
32334;DHT22;18810;53.040;8.850;2023-02-01T06:34:35;5.70;99.90
32334;DHT22;18810;53.040;8.850;2023-02-01T06:41:54;4.90;99.90
32334;DHT22;18810;53.040;8.850;2023-02-01T06:44:20;5.40;99.90
32334;DHT22;18810;53.040;8.850;2023-02-01T06:46:46;6.80;99.90
32334;DHT22;18810;53.040;8.850;2023-02-01T06:49:11;5.10;99.90
32334;DHT22;18810;53.040;8.850;2023-02-01T06:51:37;6.50;99.90
32334;DHT22;18810;53.040;8.850;2023-02-01T06:54:04;4.90;99.90
32334;DHT22;18810;53.040;8.850;2023-02-01T06:56:29;4.90;99.90
32334;DHT22;18810;53.040;8.850;2023-02-01T07:01:22;4.90;99.90
32334;DHT22;18810;53.040;8.850;2023-02-01T07:03:49;5.70;99.90
32334;DHT22;18810;53.040;8.850;2023-02-01T07:06:17;5.60;99.90
32334;DHT22;18810;53.040;8.850;2023-02-01T07:08:43;5.20;99.90
32334;DHT22;18810;53.040;8.850;2023-02-01T07:11:11;5.10;99.90
32334;DHT22;18810;53.040;8.850;2023-02-01T07:13:37;5.10;99.90
32334;DHT22;18810;53.040;8.850;2023-02-01T07:16:05;5.10;99.90
32334;DHT22;18810;53.040;8.850;2023-02-01T07:18:31;5.10;99.90
32334;DHT22;18810;53.040;8.850;2023-02-01T07:20:58;5.30;99.90
32334;DHT22;18810;53.040;8.850;2023-02-01T07:23:24;5.60;99.90
32334;DHT22;18810;53.040;8.850;2023-02-01T07:25:58;5.20;99.90
32334;DHT22;18810;53.040;8.850;2023-02-01T07:28:25;5.20;99.90
32334;DHT22;18810;53.040;8.850;2023-02-01T07:30:50;5.40;99.90
32334;DHT22;18810;53.040;8.850;2023-02-01T07:33:19;5.30;99.90
32334;DHT22;18810;53.040;8.850;2023-02-01T07:35:45;5.30;99.90
32334;DHT22;18810;53.040;8.850;2023-02-01T07:38:11;5.30;99.90
32334;DHT22;18810;53.040;8.850;2023-02-01T07:40:36;5.20;99.90
32334;DHT22;18810;53.040;8.850;2023-02-01T07:43:02;5.60;99.90
32334;DHT22;18810;53.040;8.850;2023-02-01T07:45:28;5.30;99.90
32334;DHT22;18810;53.040;8.850;2023-02-01T07:47:53;5.30;99.90
32334;DHT22;18810;53.040;8.850;2023-02-01T07:50:19;5.30;99.90
32334;DHT22;18810;53.040;8.850;2023-02-01T07:52:45;5.70;99.90
32334;DHT22;18810;53.040;8.850;2023-02-01T07:55:10;5.50;99.90
32334;DHT22;18810;53.040;8.850;2023-02-01T07:57:36;5.40;99.90
32334;DHT22;18810;53.040;8.850;2023-02-01T08:00:03;5.40;99.90
32334;DHT22;18810;53.040;8.850;2023-02-01T08:02:47;5.50;99.90
32334;DHT22;18810;53.040;8.850;2023-02-01T08:05:13;5.60;99.90
32334;DHT22;18810;53.040;8.850;2023-02-01T08:07:38;5.60;99.90
32334;DHT22;18810;53.040;8.850;2023-02-01T08:10:04;5.80;99.90
32334;DHT22;18810;53.040;8.850;2023-02-01T08:12:36;5.40;99.90
32334;DHT22;18810;53.040;8.850;2023-02-01T08:15:02;5.40;99.90
32334;DHT22;18810;53.040;8.850;2023-02-01T08:17:28;5.40;99.90
32334;DHT22;18810;53.040;8.850;2023-02-01T08:19:54;5.40;99.90
32334;DHT22;18810;53.040;8.850;2023-02-01T08:22:20;6.70;99.90
32334;DHT22;18810;53.040;8.850;2023-02-01T08:24:49;5.90;99.90
32334;DHT22;18810;53.040;8.850;2023-02-01T08:27:14;5.60;99.90
32334;DHT22;18810;53.040;8.850;2023-02-01T08:29:40;5.70;99.90
32334;DHT22;18810;53.040;8.850;2023-02-01T08:32:06;5.70;99.90
32334;DHT22;18810;53.040;8.850;2023-02-01T08:34:31;5.80;99.90
32334;DHT22;18810;53.040;8.850;2023-02-01T08:36:57;5.80;99.90
32334;DHT22;18810;53.040;8.850;2023-02-01T08:39:23;5.80;99.90
32334;DHT22;18810;53.040;8.850;2023-02-01T08:41:49;5.80;99.90
32334;DHT22;18810;53.040;8.850;2023-02-01T08:44:35;6.50;99.90
32334;DHT22;18810;53.040;8.850;2023-02-01T08:47:01;6.30;99.90
32334;DHT22;18810;53.040;8.850;2023-02-01T08:49:26;6.20;99.90
32334;DHT22;18810;53.040;8.850;2023-02-01T08:51:52;6.50;99.90
32334;DHT22;18810;53.040;8.850;2023-02-01T08:54:18;6.50;99.90
32334;DHT22;18810;53.040;8.850;2023-02-01T08:56:43;6.30;99.90
32334;DHT22;18810;53.040;8.850;2023-02-01T08:59:09;6.30;99.90
32334;DHT22;18810;53.040;8.850;2023-02-01T09:01:34;6.30;99.90
32334;DHT22;18810;53.040;8.850;2023-02-01T09:04:00;6.20;99.90
32334;DHT22;18810;53.040;8.850;2023-02-01T09:06:25;6.10;99.90
32334;DHT22;18810;53.040;8.850;2023-02-01T09:08:51;6.30;99.90
32334;DHT22;18810;53.040;8.850;2023-02-01T09:11:18;6.20;99.90
32334;DHT22;18810;53.040;8.850;2023-02-01T09:13:45;6.20;99.90
32334;DHT22;18810;53.040;8.850;2023-02-01T09:16:11;6.30;99.90
32334;DHT22;18810;53.040;8.850;2023-02-01T09:18:37;6.40;99.90
32334;DHT22;18810;53.040;8.850;2023-02-01T09:21:06;6.40;99.90
32334;DHT22;18810;53.040;8.850;2023-02-01T09:23:33;6.40;99.90
32334;DHT22;18810;53.040;8.850;2023-02-01T09:26:00;6.50;99.90
32334;DHT22;18810;53.040;8.850;2023-02-01T09:28:26;6.60;99.90
32334;DHT22;18810;53.040;8.850;2023-02-01T09:30:56;6.90;99.90
32334;DHT22;18810;53.040;8.850;2023-02-01T09:33:22;6.70;99.90
32334;DHT22;18810;53.040;8.850;2023-02-01T09:35:49;6.60;99.90
32334;DHT22;18810;53.040;8.850;2023-02-01T09:38:15;6.60;99.90
32334;DHT22;18810;53.040;8.850;2023-02-01T09:40:45;6.50;99.90
32334;DHT22;18810;53.040;8.850;2023-02-01T09:46:27;6.50;99.90
32334;DHT22;18810;53.040;8.850;2023-02-01T09:48:56;6.50;99.90
32334;DHT22;18810;53.040;8.850;2023-02-01T09:51:27;6.50;99.90
32334;DHT22;18810;53.040;8.850;2023-02-01T09:54:02;6.70;99.90
32334;DHT22;18810;53.040;8.850;2023-02-01T09:56:47;6.80;99.90
32334;DHT22;18810;53.040;8.850;2023-02-01T10:02:01;6.80;99.90
32334;DHT22;18810;53.040;8.850;2023-02-01T10:04:28;6.80;99.90
32334;DHT22;18810;53.040;8.850;2023-02-01T10:18:10;6.70;99.90
32334;DHT22;18810;53.040;8.850;2023-02-01T10:26:33;6.60;99.90
32334;DHT22;18810;53.040;8.850;2023-02-01T10:29:04;7.90;99.90
32334;DHT22;18810;53.040;8.850;2023-02-01T10:31:36;6.60;99.90
32334;DHT22;18810;53.040;8.850;2023-02-01T10:36:56;6.70;99.90
32334;DHT22;18810;53.040;8.850;2023-02-01T10:39:23;6.60;99.90
32334;DHT22;18810;53.040;8.850;2023-02-01T10:41:49;6.60;99.90
32334;DHT22;18810;53.040;8.850;2023-02-01T10:44:18;6.50;99.90
32334;DHT22;18810;53.040;8.850;2023-02-01T10:46:45;6.50;99.90
32334;DHT22;18810;53.040;8.850;2023-02-01T10:49:19;6.40;99.90
32334;DHT22;18810;53.040;8.850;2023-02-01T10:51:52;6.00;99.90
32334;DHT22;18810;53.040;8.850;2023-02-01T10:54:22;6.10;99.90
32334;DHT22;18810;53.040;8.850;2023-02-01T10:56:56;6.30;99.90
32334;DHT22;18810;53.040;8.850;2023-02-01T10:59:24;5.90;99.90
32334;DHT22;18810;53.040;8.850;2023-02-01T11:01:59;5.90;99.90
32334;DHT22;18810;53.040;8.850;2023-02-01T11:04:26;5.90;99.90
32334;DHT22;18810;53.040;8.850;2023-02-01T11:09:50;5.90;99.90
32334;DHT22;18810;53.040;8.850;2023-02-01T11:12:32;5.90;99.90
32334;DHT22;18810;53.040;8.850;2023-02-01T11:15:22;6.00;99.90
32334;DHT22;18810;53.040;8.850;2023-02-01T11:17:50;5.90;99.90
32334;DHT22;18810;53.040;8.850;2023-02-01T11:20:38;5.90;99.90
32334;DHT22;18810;53.040;8.850;2023-02-01T11:23:10;5.80;99.90
32334;DHT22;18810;53.040;8.850;2023-02-01T11:25:37;5.80;99.90
32334;DHT22;18810;53.040;8.850;2023-02-01T11:28:03;5.90;99.90
32334;DHT22;18810;53.040;8.850;2023-02-01T11:30:39;5.80;99.90
32334;DHT22;18810;53.040;8.850;2023-02-01T11:33:09;5.90;99.90
32334;DHT22;18810;53.040;8.850;2023-02-01T11:35:38;5.80;99.90
32334;DHT22;18810;53.040;8.850;2023-02-01T11:38:15;5.80;99.90
32334;DHT22;18810;53.040;8.850;2023-02-01T11:40:43;5.60;99.90
32334;DHT22;18810;53.040;8.850;2023-02-01T11:43:27;5.50;99.90
32334;DHT22;18810;53.040;8.850;2023-02-01T11:46:03;5.50;99.90
32334;DHT22;18810;53.040;8.850;2023-02-01T11:48:31;5.40;99.90
32334;DHT22;18810;53.040;8.850;2023-02-01T12:23:57;5.20;99.90
32334;DHT22;18810;53.040;8.850;2023-02-01T12:26:11;5.30;99.90
32334;DHT22;18810;53.040;8.850;2023-02-01T12:36:51;4.10;99.90
32334;DHT22;18810;53.040;8.850;2023-02-01T12:39:40;4.00;99.90
32334;DHT22;18810;53.040;8.850;2023-02-01T12:42:25;3.90;99.90
32334;DHT22;18810;53.040;8.850;2023-02-01T12:44:52;3.80;99.90
32334;DHT22;18810;53.040;8.850;2023-02-01T12:47:26;4.40;99.90
32334;DHT22;18810;53.040;8.850;2023-02-01T12:52:42;3.80;99.90
32334;DHT22;18810;53.040;8.850;2023-02-01T12:55:32;3.90;99.90
32334;DHT22;18810;53.040;8.850;2023-02-01T12:58:15;4.00;99.90
32334;DHT22;18810;53.040;8.850;2023-02-01T13:00:50;4.20;99.90
32334;DHT22;18810;53.040;8.850;2023-02-01T13:03:40;4.40;99.90
32334;DHT22;18810;53.040;8.850;2023-02-01T13:06:15;5.00;99.90
32334;DHT22;18810;53.040;8.850;2023-02-01T13:11:30;4.90;99.90
32334;DHT22;18810;53.040;8.850;2023-02-01T13:16:51;4.60;99.90
32334;DHT22;18810;53.040;8.850;2023-02-01T13:19:23;4.20;99.90
32334;DHT22;18810;53.040;8.850;2023-02-01T13:21:55;4.30;99.90
32334;DHT22;18810;53.040;8.850;2023-02-01T13:24:59;4.10;99.90
32334;DHT22;18810;53.040;8.850;2023-02-01T13:27:28;4.10;99.90
32334;DHT22;18810;53.040;8.850;2023-02-01T13:35:50;4.70;99.90
32334;DHT22;18810;53.040;8.850;2023-02-01T13:41:29;5.00;99.90
32334;DHT22;18810;53.040;8.850;2023-02-01T13:44:11;5.30;99.90
32334;DHT22;18810;53.040;8.850;2023-02-01T13:46:44;5.40;99.90
32334;DHT22;18810;53.040;8.850;2023-02-01T13:49:40;5.40;99.90
32334;DHT22;18810;53.040;8.850;2023-02-01T13:52:16;5.90;99.90
32334;DHT22;18810;53.040;8.850;2023-02-01T13:54:46;6.40;99.90
32334;DHT22;18810;53.040;8.850;2023-02-01T13:57:36;6.70;99.90
32334;DHT22;18810;53.040;8.850;2023-02-01T14:03:10;6.30;99.90
32334;DHT22;18810;53.040;8.850;2023-02-01T14:13:27;6.30;99.90
32334;DHT22;18810;53.040;8.850;2023-02-01T14:16:14;6.40;99.90
32334;DHT22;18810;53.040;8.850;2023-02-01T14:24:04;6.60;99.90
32334;DHT22;18810;53.040;8.850;2023-02-01T14:42:21;6.50;99.90
32334;DHT22;18810;53.040;8.850;2023-02-01T14:44:48;6.40;99.90
32334;DHT22;18810;53.040;8.850;2023-02-01T14:58:02;6.40;99.90
32334;DHT22;18810;53.040;8.850;2023-02-01T15:00:30;6.40;99.90
32334;DHT22;18810;53.040;8.850;2023-02-01T15:06:04;6.30;99.90
32334;DHT22;18810;53.040;8.850;2023-02-01T15:08:34;6.30;99.90
32334;DHT22;18810;53.040;8.850;2023-02-01T15:11:03;6.40;99.90
32334;DHT22;18810;53.040;8.850;2023-02-01T15:13:31;6.40;99.90
32334;DHT22;18810;53.040;8.850;2023-02-01T15:16:02;6.30;99.90
32334;DHT22;18810;53.040;8.850;2023-02-01T15:18:28;6.20;99.90
32334;DHT22;18810;53.040;8.850;2023-02-01T15:21:01;6.10;99.90
32334;DHT22;18810;53.040;8.850;2023-02-01T15:23:27;6.10;99.90
32334;DHT22;18810;53.040;8.850;2023-02-01T15:25:53;6.20;99.90
32334;DHT22;18810;53.040;8.850;2023-02-01T15:28:20;6.30;99.90
32334;DHT22;18810;53.040;8.850;2023-02-01T15:31:00;6.40;99.90
32334;DHT22;18810;53.040;8.850;2023-02-01T15:33:28;6.50;99.90
32334;DHT22;18810;53.040;8.850;2023-02-01T15:43:42;6.70;99.90
32334;DHT22;18810;53.040;8.850;2023-02-01T15:46:16;6.70;99.90
32334;DHT22;18810;53.040;8.850;2023-02-01T15:48:52;7.10;99.90
32334;DHT22;18810;53.040;8.850;2023-02-01T15:51:21;6.70;99.90
32334;DHT22;18810;53.040;8.850;2023-02-01T15:53:57;6.70;99.90
32334;DHT22;18810;53.040;8.850;2023-02-01T15:56:32;6.70;99.90
32334;DHT22;18810;53.040;8.850;2023-02-01T15:59:01;6.40;99.90
32334;DHT22;18810;53.040;8.850;2023-02-01T16:01:28;6.70;99.90
32334;DHT22;18810;53.040;8.850;2023-02-01T16:04:20;6.70;99.90
32334;DHT22;18810;53.040;8.850;2023-02-01T16:06:49;6.70;99.90
32334;DHT22;18810;53.040;8.850;2023-02-01T16:09:18;6.80;99.90
32334;DHT22;18810;53.040;8.850;2023-02-01T16:11:59;6.80;99.90
32334;DHT22;18810;53.040;8.850;2023-02-01T16:14:24;6.50;99.90
32334;DHT22;18810;53.040;8.850;2023-02-01T16:16:52;6.50;99.90
32334;DHT22;18810;53.040;8.850;2023-02-01T16:19:19;6.10;99.90
32334;DHT22;18810;53.040;8.850;2023-02-01T16:21:45;5.70;99.90
32334;DHT22;18810;53.040;8.850;2023-02-01T16:24:11;5.10;99.90
32334;DHT22;18810;53.040;8.850;2023-02-01T16:26:37;5.10;99.90
32334;DHT22;18810;53.040;8.850;2023-02-01T16:29:04;5.00;99.90
32334;DHT22;18810;53.040;8.850;2023-02-01T16:31:37;4.90;99.90
32334;DHT22;18810;53.040;8.850;2023-02-01T16:34:04;4.90;99.90
32334;DHT22;18810;53.040;8.850;2023-02-01T16:36:31;5.00;99.90
32334;DHT22;18810;53.040;8.850;2023-02-01T16:38:57;5.10;99.90
32334;DHT22;18810;53.040;8.850;2023-02-01T16:41:24;5.20;99.90
32334;DHT22;18810;53.040;8.850;2023-02-01T16:43:52;5.30;99.90
32334;DHT22;18810;53.040;8.850;2023-02-01T16:46:20;5.20;99.90
32334;DHT22;18810;53.040;8.850;2023-02-01T16:48:58;5.00;99.90
32334;DHT22;18810;53.040;8.850;2023-02-01T16:51:26;4.80;99.90
32334;DHT22;18810;53.040;8.850;2023-02-01T16:53:52;4.70;99.90
32334;DHT22;18810;53.040;8.850;2023-02-01T16:56:24;5.80;99.90
32334;DHT22;18810;53.040;8.850;2023-02-01T16:58:51;5.00;99.90
32334;DHT22;18810;53.040;8.850;2023-02-01T17:01:18;4.80;99.90
32334;DHT22;18810;53.040;8.850;2023-02-01T17:03:44;4.90;99.90
32334;DHT22;18810;53.040;8.850;2023-02-01T17:06:13;5.80;99.90
32334;DHT22;18810;53.040;8.850;2023-02-01T17:08:42;5.20;99.90
32334;DHT22;18810;53.040;8.850;2023-02-01T17:11:10;5.00;99.90
32334;DHT22;18810;53.040;8.850;2023-02-01T17:13:36;5.20;99.90
32334;DHT22;18810;53.040;8.850;2023-02-01T17:18:38;4.90;99.90
32334;DHT22;18810;53.040;8.850;2023-02-01T17:21:04;5.40;99.90
32334;DHT22;18810;53.040;8.850;2023-02-01T17:23:31;4.70;99.90
32334;DHT22;18810;53.040;8.850;2023-02-01T17:25:57;5.10;99.90
32334;DHT22;18810;53.040;8.850;2023-02-01T17:28:23;5.20;99.90
32334;DHT22;18810;53.040;8.850;2023-02-01T17:30:49;5.30;99.90
32334;DHT22;18810;53.040;8.850;2023-02-01T17:35:46;5.70;99.90
32334;DHT22;18810;53.040;8.850;2023-02-01T17:38:13;5.60;99.90
32334;DHT22;18810;53.040;8.850;2023-02-01T17:40:38;5.80;99.90
32334;DHT22;18810;53.040;8.850;2023-02-01T17:43:04;5.80;99.90
32334;DHT22;18810;53.040;8.850;2023-02-01T17:45:39;6.00;99.90
32334;DHT22;18810;53.040;8.850;2023-02-01T17:48:07;5.90;99.90
32334;DHT22;18810;53.040;8.850;2023-02-01T17:50:36;5.80;99.90
32334;DHT22;18810;53.040;8.850;2023-02-01T17:53:04;5.50;99.90
32334;DHT22;18810;53.040;8.850;2023-02-01T17:55:33;5.60;99.90
32334;DHT22;18810;53.040;8.850;2023-02-01T17:57:58;5.90;99.90
32334;DHT22;18810;53.040;8.850;2023-02-01T18:00:24;6.00;99.90
32334;DHT22;18810;53.040;8.850;2023-02-01T18:02:50;5.70;99.90
32334;DHT22;18810;53.040;8.850;2023-02-01T18:05:22;5.80;99.90
32334;DHT22;18810;53.040;8.850;2023-02-01T18:07:48;5.90;99.90
32334;DHT22;18810;53.040;8.850;2023-02-01T18:12:40;5.80;99.90
32334;DHT22;18810;53.040;8.850;2023-02-01T18:15:15;6.20;99.90
32334;DHT22;18810;53.040;8.850;2023-02-01T18:17:41;5.80;99.90
32334;DHT22;18810;53.040;8.850;2023-02-01T18:20:12;5.80;99.90
32334;DHT22;18810;53.040;8.850;2023-02-01T18:22:39;5.80;99.90
32334;DHT22;18810;53.040;8.850;2023-02-01T18:25:27;5.80;99.90
32334;DHT22;18810;53.040;8.850;2023-02-01T18:27:55;5.80;99.90
32334;DHT22;18810;53.040;8.850;2023-02-01T18:30:24;5.80;99.90
32334;DHT22;18810;53.040;8.850;2023-02-01T18:32:53;5.70;99.90
32334;DHT22;18810;53.040;8.850;2023-02-01T18:35:24;5.70;99.90
32334;DHT22;18810;53.040;8.850;2023-02-01T18:37:50;5.70;99.90
32334;DHT22;18810;53.040;8.850;2023-02-01T18:40:22;6.00;99.90
32334;DHT22;18810;53.040;8.850;2023-02-01T18:42:48;5.80;99.90
32334;DHT22;18810;53.040;8.850;2023-02-01T18:45:24;5.90;99.90
32334;DHT22;18810;53.040;8.850;2023-02-01T18:47:51;7.00;99.90
32334;DHT22;18810;53.040;8.850;2023-02-01T18:50:17;5.80;99.90
32334;DHT22;18810;53.040;8.850;2023-02-01T18:52:43;6.00;99.90
32334;DHT22;18810;53.040;8.850;2023-02-01T18:55:09;5.80;99.90
32334;DHT22;18810;53.040;8.850;2023-02-01T18:57:35;6.30;99.90
32334;DHT22;18810;53.040;8.850;2023-02-01T19:00:03;5.90;99.90
32334;DHT22;18810;53.040;8.850;2023-02-01T19:02:30;5.80;99.90
32334;DHT22;18810;53.040;8.850;2023-02-01T19:04:55;5.90;99.90
32334;DHT22;18810;53.040;8.850;2023-02-01T19:07:22;5.90;99.90
32334;DHT22;18810;53.040;8.850;2023-02-01T19:09:48;5.90;99.90
32334;DHT22;18810;53.040;8.850;2023-02-01T19:12:13;5.90;99.90
32334;DHT22;18810;53.040;8.850;2023-02-01T19:17:07;6.00;99.90
32334;DHT22;18810;53.040;8.850;2023-02-01T19:19:32;6.00;99.90
32334;DHT22;18810;53.040;8.850;2023-02-01T19:21:58;6.00;99.90
32334;DHT22;18810;53.040;8.850;2023-02-01T19:24:24;6.10;99.90
32334;DHT22;18810;53.040;8.850;2023-02-01T19:26:52;6.00;99.90
32334;DHT22;18810;53.040;8.850;2023-02-01T19:29:18;6.00;99.90
32334;DHT22;18810;53.040;8.850;2023-02-01T19:31:44;6.00;99.90
32334;DHT22;18810;53.040;8.850;2023-02-01T19:34:12;6.10;99.90
32334;DHT22;18810;53.040;8.850;2023-02-01T19:36:38;5.90;99.90
32334;DHT22;18810;53.040;8.850;2023-02-01T19:39:05;5.90;99.90
32334;DHT22;18810;53.040;8.850;2023-02-01T19:41:31;5.90;99.90
32334;DHT22;18810;53.040;8.850;2023-02-01T19:43:57;5.90;99.90
32334;DHT22;18810;53.040;8.850;2023-02-01T19:46:26;6.10;99.90
32334;DHT22;18810;53.040;8.850;2023-02-01T19:48:52;6.00;99.90
32334;DHT22;18810;53.040;8.850;2023-02-01T19:51:18;6.00;99.90